sensor_id;sensor_type;location;lat;lon;timestamp;P1;durP1;ratioP1;P2;durP2;ratioP2
58864;SDS011;45702;52.982;6.658;2023-02-28T00:01:07;22.17;;;9.27;;
58864;SDS011;45702;52.982;6.658;2023-02-28T00:03:33;19.83;;;9.13;;
58864;SDS011;45702;52.982;6.658;2023-02-28T00:08:27;22.85;;;9.93;;
58864;SDS011;45702;52.982;6.658;2023-02-28T00:10:53;20.80;;;9.43;;
58864;SDS011;45702;52.982;6.658;2023-02-28T00:13:19;17.33;;;9.13;;
58864;SDS011;45702;52.982;6.658;2023-02-28T00:15:46;21.30;;;10.23;;
58864;SDS011;45702;52.982;6.658;2023-02-28T00:18:12;19.98;;;9.10;;
58864;SDS011;45702;52.982;6.658;2023-02-28T00:20:38;20.23;;;9.32;;
58864;SDS011;45702;52.982;6.658;2023-02-28T00:23:04;18.88;;;9.50;;
58864;SDS011;45702;52.982;6.658;2023-02-28T00:25:30;17.65;;;8.88;;
58864;SDS011;45702;52.982;6.658;2023-02-28T00:27:56;24.00;;;10.07;;
58864;SDS011;45702;52.982;6.658;2023-02-28T00:30:23;19.98;;;10.43;;
58864;SDS011;45702;52.982;6.658;2023-02-28T00:32:50;17.02;;;9.98;;
58864;SDS011;45702;52.982;6.658;2023-02-28T00:35:16;19.40;;;9.93;;
58864;SDS011;45702;52.982;6.658;2023-02-28T00:37:43;24.17;;;10.90;;
58864;SDS011;45702;52.982;6.658;2023-02-28T00:40:09;23.65;;;10.63;;
58864;SDS011;45702;52.982;6.658;2023-02-28T00:42:37;25.65;;;11.45;;
58864;SDS011;45702;52.982;6.658;2023-02-28T00:45:03;23.48;;;11.27;;
58864;SDS011;45702;52.982;6.658;2023-02-28T00:47:30;27.65;;;11.63;;
58864;SDS011;45702;52.982;6.658;2023-02-28T00:49:56;25.80;;;10.80;;
58864;SDS011;45702;52.982;6.658;2023-02-28T00:52:22;28.73;;;11.05;;
58864;SDS011;45702;52.982;6.658;2023-02-28T00:54:48;24.13;;;11.45;;
58864;SDS011;45702;52.982;6.658;2023-02-28T00:57:14;22.70;;;11.80;;
58864;SDS011;45702;52.982;6.658;2023-02-28T00:59:40;31.63;;;15.02;;
58864;SDS011;45702;52.982;6.658;2023-02-28T01:02:06;36.20;;;16.27;;
58864;SDS011;45702;52.982;6.658;2023-02-28T01:04:32;33.58;;;13.88;;
58864;SDS011;45702;52.982;6.658;2023-02-28T01:06:58;23.08;;;12.30;;
58864;SDS011;45702;52.982;6.658;2023-02-28T01:09:24;24.38;;;11.68;;
58864;SDS011;45702;52.982;6.658;2023-02-28T01:11:50;23.25;;;11.55;;
58864;SDS011;45702;52.982;6.658;2023-02-28T01:14:16;26.30;;;11.85;;
58864;SDS011;45702;52.982;6.658;2023-02-28T01:16:43;22.52;;;11.05;;
58864;SDS011;45702;52.982;6.658;2023-02-28T01:19:09;22.90;;;11.57;;
58864;SDS011;45702;52.982;6.658;2023-02-28T01:21:35;25.65;;;11.40;;
58864;SDS011;45702;52.982;6.658;2023-02-28T01:24:02;26.10;;;11.48;;
58864;SDS011;45702;52.982;6.658;2023-02-28T01:26:28;26.95;;;12.10;;
58864;SDS011;45702;52.982;6.658;2023-02-28T01:28:54;22.52;;;11.43;;
58864;SDS011;45702;52.982;6.658;2023-02-28T01:31:20;22.88;;;11.60;;
58864;SDS011;45702;52.982;6.658;2023-02-28T01:33:47;25.58;;;12.02;;
58864;SDS011;45702;52.982;6.658;2023-02-28T01:36:14;21.35;;;11.02;;
58864;SDS011;45702;52.982;6.658;2023-02-28T01:38:41;32.20;;;11.33;;
58864;SDS011;45702;52.982;6.658;2023-02-28T01:41:07;29.23;;;12.10;;
58864;SDS011;45702;52.982;6.658;2023-02-28T01:46:09;26.55;;;11.15;;
58864;SDS011;45702;52.982;6.658;2023-02-28T01:48:36;26.77;;;12.20;;
58864;SDS011;45702;52.982;6.658;2023-02-28T01:51:08;28.10;;;11.70;;
58864;SDS011;45702;52.982;6.658;2023-02-28T01:53:37;31.83;;;11.85;;
58864;SDS011;45702;52.982;6.658;2023-02-28T01:56:05;29.38;;;12.25;;
58864;SDS011;45702;52.982;6.658;2023-02-28T01:58:33;24.38;;;12.35;;
58864;SDS011;45702;52.982;6.658;2023-02-28T02:00:59;22.65;;;12.30;;
58864;SDS011;45702;52.982;6.658;2023-02-28T02:03:25;32.47;;;13.90;;
58864;SDS011;45702;52.982;6.658;2023-02-28T02:05:51;26.88;;;13.63;;
58864;SDS011;45702;52.982;6.658;2023-02-28T02:08:19;26.48;;;13.75;;
58864;SDS011;45702;52.982;6.658;2023-02-28T02:10:46;25.33;;;13.93;;
58864;SDS011;45702;52.982;6.658;2023-02-28T02:18:56;31.83;;;12.35;;
58864;SDS011;45702;52.982;6.658;2023-02-28T02:32:07;28.60;;;11.25;;
58864;SDS011;45702;52.982;6.658;2023-02-28T02:42:34;28.45;;;11.43;;
58864;SDS011;45702;52.982;6.658;2023-02-28T02:45:22;28.38;;;10.50;;
58864;SDS011;45702;52.982;6.658;2023-02-28T02:47:49;24.77;;;10.67;;
58864;SDS011;45702;52.982;6.658;2023-02-28T02:50:22;21.60;;;10.43;;
58864;SDS011;45702;52.982;6.658;2023-02-28T02:52:51;24.55;;;11.18;;
58864;SDS011;45702;52.982;6.658;2023-02-28T02:55:17;24.33;;;10.43;;
58864;SDS011;45702;52.982;6.658;2023-02-28T02:57:48;21.83;;;10.18;;
58864;SDS011;45702;52.982;6.658;2023-02-28T03:00:16;18.45;;;8.73;;
58864;SDS011;45702;52.982;6.658;2023-02-28T03:02:43;26.27;;;9.70;;
58864;SDS011;45702;52.982;6.658;2023-02-28T03:05:56;19.60;;;9.30;;
58864;SDS011;45702;52.982;6.658;2023-02-28T03:07:56;24.90;;;8.95;;
58864;SDS011;45702;52.982;6.658;2023-02-28T03:10:42;22.02;;;9.63;;
58864;SDS011;45702;52.982;6.658;2023-02-28T03:13:11;22.90;;;9.55;;
58864;SDS011;45702;52.982;6.658;2023-02-28T03:16:24;22.23;;;9.43;;
58864;SDS011;45702;52.982;6.658;2023-02-28T03:18:32;26.55;;;9.75;;
58864;SDS011;45702;52.982;6.658;2023-02-28T03:21:06;21.40;;;9.48;;
58864;SDS011;45702;52.982;6.658;2023-02-28T03:23:42;23.67;;;9.63;;
58864;SDS011;45702;52.982;6.658;2023-02-28T03:26:15;22.02;;;9.57;;
58864;SDS011;45702;52.982;6.658;2023-02-28T03:28:43;22.10;;;9.60;;
58864;SDS011;45702;52.982;6.658;2023-02-28T03:31:46;25.38;;;10.30;;
58864;SDS011;45702;52.982;6.658;2023-02-28T03:34:05;23.67;;;10.32;;
58864;SDS011;45702;52.982;6.658;2023-02-28T03:36:36;23.85;;;10.57;;
58864;SDS011;45702;52.982;6.658;2023-02-28T03:39:09;21.77;;;10.30;;
58864;SDS011;45702;52.982;6.658;2023-02-28T03:41:48;29.83;;;11.52;;
58864;SDS011;45702;52.982;6.658;2023-02-28T03:44:20;23.90;;;11.18;;
58864;SDS011;45702;52.982;6.658;2023-02-28T03:46:49;25.85;;;11.80;;
58864;SDS011;45702;52.982;6.658;2023-02-28T03:49:18;27.55;;;11.65;;
58864;SDS011;45702;52.982;6.658;2023-02-28T03:51:46;30.08;;;12.10;;
58864;SDS011;45702;52.982;6.658;2023-02-28T03:54:13;28.38;;;12.00;;
58864;SDS011;45702;52.982;6.658;2023-02-28T03:56:43;26.83;;;12.18;;
58864;SDS011;45702;52.982;6.658;2023-02-28T03:59:30;32.55;;;11.95;;
58864;SDS011;45702;52.982;6.658;2023-02-28T04:01:58;24.58;;;11.40;;
58864;SDS011;45702;52.982;6.658;2023-02-28T04:04:24;29.13;;;11.63;;
58864;SDS011;45702;52.982;6.658;2023-02-28T04:06:51;28.15;;;11.35;;
58864;SDS011;45702;52.982;6.658;2023-02-28T04:09:17;27.65;;;11.65;;
58864;SDS011;45702;52.982;6.658;2023-02-28T04:11:44;29.75;;;11.95;;
58864;SDS011;45702;52.982;6.658;2023-02-28T04:14:11;26.15;;;11.60;;
58864;SDS011;45702;52.982;6.658;2023-02-28T04:16:39;32.28;;;12.48;;
58864;SDS011;45702;52.982;6.658;2023-02-28T04:19:06;27.10;;;11.57;;
58864;SDS011;45702;52.982;6.658;2023-02-28T04:21:33;27.15;;;11.93;;
58864;SDS011;45702;52.982;6.658;2023-02-28T04:23:59;32.30;;;12.25;;
58864;SDS011;45702;52.982;6.658;2023-02-28T04:26:32;36.65;;;13.85;;
58864;SDS011;45702;52.982;6.658;2023-02-28T04:28:59;38.72;;;14.43;;
58864;SDS011;45702;52.982;6.658;2023-02-28T04:31:25;37.08;;;15.10;;
58864;SDS011;45702;52.982;6.658;2023-02-28T04:33:51;38.40;;;14.57;;
58864;SDS011;45702;52.982;6.658;2023-02-28T04:36:18;35.10;;;15.10;;
58864;SDS011;45702;52.982;6.658;2023-02-28T04:38:44;40.38;;;15.02;;
58864;SDS011;45702;52.982;6.658;2023-02-28T04:41:11;34.55;;;14.75;;
58864;SDS011;45702;52.982;6.658;2023-02-28T04:43:37;39.42;;;15.48;;
58864;SDS011;45702;52.982;6.658;2023-02-28T04:46:03;43.88;;;15.98;;
58864;SDS011;45702;52.982;6.658;2023-02-28T04:48:31;42.05;;;15.82;;
58864;SDS011;45702;52.982;6.658;2023-02-28T04:51:01;41.97;;;16.65;;
58864;SDS011;45702;52.982;6.658;2023-02-28T04:53:27;47.90;;;16.17;;
58864;SDS011;45702;52.982;6.658;2023-02-28T04:55:54;48.08;;;17.65;;
58864;SDS011;45702;52.982;6.658;2023-02-28T04:58:20;50.65;;;17.73;;
58864;SDS011;45702;52.982;6.658;2023-02-28T05:00:48;50.55;;;16.85;;
58864;SDS011;45702;52.982;6.658;2023-02-28T05:03:14;46.35;;;17.73;;
58864;SDS011;45702;52.982;6.658;2023-02-28T05:05:40;45.08;;;17.48;;
58864;SDS011;45702;52.982;6.658;2023-02-28T05:08:06;41.05;;;17.65;;
58864;SDS011;45702;52.982;6.658;2023-02-28T05:10:32;45.97;;;18.77;;
58864;SDS011;45702;52.982;6.658;2023-02-28T05:12:58;49.63;;;18.35;;
58864;SDS011;45702;52.982;6.658;2023-02-28T05:15:24;40.05;;;18.20;;
58864;SDS011;45702;52.982;6.658;2023-02-28T05:17:50;43.78;;;17.50;;
58864;SDS011;45702;52.982;6.658;2023-02-28T05:20:16;45.75;;;18.70;;
58864;SDS011;45702;52.982;6.658;2023-02-28T05:22:42;47.65;;;18.58;;
58864;SDS011;45702;52.982;6.658;2023-02-28T05:25:12;45.33;;;18.77;;
58864;SDS011;45702;52.982;6.658;2023-02-28T05:27:40;44.40;;;17.55;;
58864;SDS011;45702;52.982;6.658;2023-02-28T05:30:06;49.35;;;18.67;;
58864;SDS011;45702;52.982;6.658;2023-02-28T05:32:35;45.08;;;18.65;;
58864;SDS011;45702;52.982;6.658;2023-02-28T05:35:01;50.05;;;19.17;;
58864;SDS011;45702;52.982;6.658;2023-02-28T05:37:27;50.53;;;18.95;;
58864;SDS011;45702;52.982;6.658;2023-02-28T05:39:53;44.90;;;18.67;;
58864;SDS011;45702;52.982;6.658;2023-02-28T05:42:19;47.97;;;18.92;;
58864;SDS011;45702;52.982;6.658;2023-02-28T05:44:45;48.58;;;19.25;;
58864;SDS011;45702;52.982;6.658;2023-02-28T05:47:11;46.05;;;18.20;;
58864;SDS011;45702;52.982;6.658;2023-02-28T05:49:40;46.03;;;19.30;;
58864;SDS011;45702;52.982;6.658;2023-02-28T05:52:06;59.58;;;19.55;;
58864;SDS011;45702;52.982;6.658;2023-02-28T05:54:33;48.17;;;18.80;;
58864;SDS011;45702;52.982;6.658;2023-02-28T05:56:59;46.17;;;18.80;;
58864;SDS011;45702;52.982;6.658;2023-02-28T05:59:25;49.65;;;19.02;;
58864;SDS011;45702;52.982;6.658;2023-02-28T06:01:51;47.03;;;19.33;;
58864;SDS011;45702;52.982;6.658;2023-02-28T06:04:18;48.95;;;18.25;;
58864;SDS011;45702;52.982;6.658;2023-02-28T06:06:48;56.33;;;19.58;;
58864;SDS011;45702;52.982;6.658;2023-02-28T06:09:15;50.53;;;19.58;;
58864;SDS011;45702;52.982;6.658;2023-02-28T06:11:41;49.92;;;19.75;;
58864;SDS011;45702;52.982;6.658;2023-02-28T06:14:07;53.60;;;20.98;;
58864;SDS011;45702;52.982;6.658;2023-02-28T06:16:37;57.80;;;22.33;;
58864;SDS011;45702;52.982;6.658;2023-02-28T06:19:03;67.88;;;26.67;;
58864;SDS011;45702;52.982;6.658;2023-02-28T06:21:30;76.13;;;26.10;;
58864;SDS011;45702;52.982;6.658;2023-02-28T06:23:57;59.97;;;23.27;;
58864;SDS011;45702;52.982;6.658;2023-02-28T06:26:23;57.67;;;21.95;;
58864;SDS011;45702;52.982;6.658;2023-02-28T06:28:49;54.55;;;22.55;;
58864;SDS011;45702;52.982;6.658;2023-02-28T06:31:16;53.78;;;21.95;;
58864;SDS011;45702;52.982;6.658;2023-02-28T06:33:43;65.97;;;21.77;;
58864;SDS011;45702;52.982;6.658;2023-02-28T06:36:10;57.28;;;20.95;;
58864;SDS011;45702;52.982;6.658;2023-02-28T06:38:37;55.10;;;21.38;;
58864;SDS011;45702;52.982;6.658;2023-02-28T06:41:03;60.35;;;21.20;;
58864;SDS011;45702;52.982;6.658;2023-02-28T06:43:31;55.58;;;21.92;;
58864;SDS011;45702;52.982;6.658;2023-02-28T06:45:58;56.08;;;21.70;;
58864;SDS011;45702;52.982;6.658;2023-02-28T06:48:25;61.60;;;23.50;;
58864;SDS011;45702;52.982;6.658;2023-02-28T06:50:51;61.00;;;23.30;;
58864;SDS011;45702;52.982;6.658;2023-02-28T06:53:17;57.53;;;22.10;;
58864;SDS011;45702;52.982;6.658;2023-02-28T06:55:43;59.78;;;21.98;;
58864;SDS011;45702;52.982;6.658;2023-02-28T06:58:10;57.30;;;21.63;;
58864;SDS011;45702;52.982;6.658;2023-02-28T07:00:45;56.10;;;20.85;;
58864;SDS011;45702;52.982;6.658;2023-02-28T07:03:12;63.13;;;23.38;;
58864;SDS011;45702;52.982;6.658;2023-02-28T07:08:06;59.20;;;23.08;;
58864;SDS011;45702;52.982;6.658;2023-02-28T07:10:33;62.80;;;23.38;;
58864;SDS011;45702;52.982;6.658;2023-02-28T07:12:59;61.50;;;23.70;;
58864;SDS011;45702;52.982;6.658;2023-02-28T07:15:26;59.03;;;23.35;;
58864;SDS011;45702;52.982;6.658;2023-02-28T07:17:52;71.03;;;23.98;;
58864;SDS011;45702;52.982;6.658;2023-02-28T07:20:18;61.35;;;23.38;;
58864;SDS011;45702;52.982;6.658;2023-02-28T07:22:44;59.83;;;23.00;;
58864;SDS011;45702;52.982;6.658;2023-02-28T07:25:11;57.83;;;23.50;;
58864;SDS011;45702;52.982;6.658;2023-02-28T07:27:37;63.08;;;22.50;;
58864;SDS011;45702;52.982;6.658;2023-02-28T07:30:03;56.38;;;22.80;;
58864;SDS011;45702;52.982;6.658;2023-02-28T07:32:29;63.22;;;23.98;;
58864;SDS011;45702;52.982;6.658;2023-02-28T07:34:55;60.33;;;24.50;;
58864;SDS011;45702;52.982;6.658;2023-02-28T07:37:22;68.90;;;25.75;;
58864;SDS011;45702;52.982;6.658;2023-02-28T07:39:48;63.47;;;24.65;;
58864;SDS011;45702;52.982;6.658;2023-02-28T07:42:14;65.20;;;24.60;;
58864;SDS011;45702;52.982;6.658;2023-02-28T07:44:40;69.90;;;24.90;;
58864;SDS011;45702;52.982;6.658;2023-02-28T07:47:07;62.80;;;24.98;;
58864;SDS011;45702;52.982;6.658;2023-02-28T07:49:34;58.88;;;23.15;;
58864;SDS011;45702;52.982;6.658;2023-02-28T07:52:01;53.08;;;22.88;;
58864;SDS011;45702;52.982;6.658;2023-02-28T07:54:27;62.47;;;23.30;;
58864;SDS011;45702;52.982;6.658;2023-02-28T07:56:53;54.53;;;22.98;;
58864;SDS011;45702;52.982;6.658;2023-02-28T07:59:19;62.15;;;24.45;;
58864;SDS011;45702;52.982;6.658;2023-02-28T08:01:45;61.00;;;24.15;;
58864;SDS011;45702;52.982;6.658;2023-02-28T08:04:11;54.42;;;21.67;;
58864;SDS011;45702;52.982;6.658;2023-02-28T08:06:37;55.15;;;22.00;;
58864;SDS011;45702;52.982;6.658;2023-02-28T08:09:03;55.95;;;23.27;;
58864;SDS011;45702;52.982;6.658;2023-02-28T08:11:29;52.65;;;22.10;;
58864;SDS011;45702;52.982;6.658;2023-02-28T08:13:55;55.13;;;22.70;;
58864;SDS011;45702;52.982;6.658;2023-02-28T08:16:21;56.08;;;23.27;;
58864;SDS011;45702;52.982;6.658;2023-02-28T08:18:48;56.33;;;22.17;;
58864;SDS011;45702;52.982;6.658;2023-02-28T08:21:15;56.42;;;22.60;;
58864;SDS011;45702;52.982;6.658;2023-02-28T08:23:41;56.92;;;23.33;;
58864;SDS011;45702;52.982;6.658;2023-02-28T08:26:08;55.20;;;23.40;;
58864;SDS011;45702;52.982;6.658;2023-02-28T08:28:35;52.90;;;22.83;;
58864;SDS011;45702;52.982;6.658;2023-02-28T08:31:01;60.53;;;24.52;;
58864;SDS011;45702;52.982;6.658;2023-02-28T08:33:32;55.28;;;23.80;;
58864;SDS011;45702;52.982;6.658;2023-02-28T08:35:58;54.13;;;22.92;;
58864;SDS011;45702;52.982;6.658;2023-02-28T08:38:24;58.63;;;24.77;;
58864;SDS011;45702;52.982;6.658;2023-02-28T08:40:56;55.67;;;23.45;;
58864;SDS011;45702;52.982;6.658;2023-02-28T08:43:22;48.63;;;22.60;;
58864;SDS011;45702;52.982;6.658;2023-02-28T08:45:50;53.92;;;22.75;;
58864;SDS011;45702;52.982;6.658;2023-02-28T08:48:17;49.90;;;22.67;;
58864;SDS011;45702;52.982;6.658;2023-02-28T08:50:43;46.25;;;20.27;;
58864;SDS011;45702;52.982;6.658;2023-02-28T08:53:09;42.97;;;19.88;;
58864;SDS011;45702;52.982;6.658;2023-02-28T08:55:35;47.30;;;20.95;;
58864;SDS011;45702;52.982;6.658;2023-02-28T08:58:01;41.05;;;20.85;;
58864;SDS011;45702;52.982;6.658;2023-02-28T09:00:28;47.50;;;22.70;;
58864;SDS011;45702;52.982;6.658;2023-02-28T09:02:54;41.40;;;19.73;;
58864;SDS011;45702;52.982;6.658;2023-02-28T09:05:20;39.85;;;19.45;;
58864;SDS011;45702;52.982;6.658;2023-02-28T09:07:46;38.08;;;19.95;;
58864;SDS011;45702;52.982;6.658;2023-02-28T09:10:12;42.63;;;20.20;;
58864;SDS011;45702;52.982;6.658;2023-02-28T09:12:39;42.58;;;20.08;;
58864;SDS011;45702;52.982;6.658;2023-02-28T09:15:05;46.70;;;21.00;;
58864;SDS011;45702;52.982;6.658;2023-02-28T09:17:31;40.30;;;19.75;;
58864;SDS011;45702;52.982;6.658;2023-02-28T09:19:57;38.78;;;19.65;;
58864;SDS011;45702;52.982;6.658;2023-02-28T09:22:23;36.50;;;19.75;;
58864;SDS011;45702;52.982;6.658;2023-02-28T09:24:50;33.95;;;17.17;;
58864;SDS011;45702;52.982;6.658;2023-02-28T09:27:16;34.40;;;17.30;;
58864;SDS011;45702;52.982;6.658;2023-02-28T09:29:42;29.67;;;17.33;;
58864;SDS011;45702;52.982;6.658;2023-02-28T09:32:08;29.08;;;16.25;;
58864;SDS011;45702;52.982;6.658;2023-02-28T09:34:34;33.97;;;16.80;;
58864;SDS011;45702;52.982;6.658;2023-02-28T09:37:01;30.23;;;17.45;;
58864;SDS011;45702;52.982;6.658;2023-02-28T09:39:27;38.65;;;17.67;;
58864;SDS011;45702;52.982;6.658;2023-02-28T09:41:54;32.47;;;17.70;;
58864;SDS011;45702;52.982;6.658;2023-02-28T09:44:36;33.10;;;17.23;;
58864;SDS011;45702;52.982;6.658;2023-02-28T09:47:16;34.08;;;17.73;;
58864;SDS011;45702;52.982;6.658;2023-02-28T09:49:45;33.97;;;17.20;;
58864;SDS011;45702;52.982;6.658;2023-02-28T09:52:14;29.02;;;16.00;;
58864;SDS011;45702;52.982;6.658;2023-02-28T09:54:41;30.92;;;17.08;;
58864;SDS011;45702;52.982;6.658;2023-02-28T09:59:52;27.48;;;14.55;;
58864;SDS011;45702;52.982;6.658;2023-02-28T10:05:08;24.70;;;14.40;;
58864;SDS011;45702;52.982;6.658;2023-02-28T10:10:04;21.05;;;11.27;;
58864;SDS011;45702;52.982;6.658;2023-02-28T10:12:33;19.05;;;10.38;;
58864;SDS011;45702;52.982;6.658;2023-02-28T10:15:03;23.17;;;10.88;;
58864;SDS011;45702;52.982;6.658;2023-02-28T10:17:34;22.05;;;10.93;;
58864;SDS011;45702;52.982;6.658;2023-02-28T10:20:03;21.15;;;10.63;;
58864;SDS011;45702;52.982;6.658;2023-02-28T10:22:38;20.85;;;10.95;;
58864;SDS011;45702;52.982;6.658;2023-02-28T10:28:10;23.05;;;10.20;;
58864;SDS011;45702;52.982;6.658;2023-02-28T10:30:36;18.85;;;10.10;;
58864;SDS011;45702;52.982;6.658;2023-02-28T10:33:03;17.85;;;10.32;;
58864;SDS011;45702;52.982;6.658;2023-02-28T10:35:29;21.90;;;10.73;;
58864;SDS011;45702;52.982;6.658;2023-02-28T10:37:58;19.45;;;10.57;;
58864;SDS011;45702;52.982;6.658;2023-02-28T10:43:01;16.90;;;10.75;;
58864;SDS011;45702;52.982;6.658;2023-02-28T10:45:28;22.65;;;10.93;;
58864;SDS011;45702;52.982;6.658;2023-02-28T10:48:04;17.98;;;10.93;;
58864;SDS011;45702;52.982;6.658;2023-02-28T10:50:37;25.20;;;12.45;;
58864;SDS011;45702;52.982;6.658;2023-02-28T10:53:15;19.35;;;10.13;;
58864;SDS011;45702;52.982;6.658;2023-02-28T10:55:42;17.52;;;10.18;;
58864;SDS011;45702;52.982;6.658;2023-02-28T10:58:21;20.67;;;10.75;;
58864;SDS011;45702;52.982;6.658;2023-02-28T11:00:48;18.30;;;11.20;;
58864;SDS011;45702;52.982;6.658;2023-02-28T11:06:19;21.60;;;10.75;;
58864;SDS011;45702;52.982;6.658;2023-02-28T11:08:47;20.70;;;11.07;;
58864;SDS011;45702;52.982;6.658;2023-02-28T11:11:13;19.20;;;11.25;;
58864;SDS011;45702;52.982;6.658;2023-02-28T11:13:42;20.38;;;11.15;;
58864;SDS011;45702;52.982;6.658;2023-02-28T11:16:10;17.75;;;11.07;;
58864;SDS011;45702;52.982;6.658;2023-02-28T11:18:39;22.08;;;11.25;;
58864;SDS011;45702;52.982;6.658;2023-02-28T11:21:06;20.70;;;11.35;;
58864;SDS011;45702;52.982;6.658;2023-02-28T11:23:34;19.40;;;11.45;;
58864;SDS011;45702;52.982;6.658;2023-02-28T11:26:02;19.73;;;11.23;;
58864;SDS011;45702;52.982;6.658;2023-02-28T11:28:33;17.13;;;10.95;;
58864;SDS011;45702;52.982;6.658;2023-02-28T11:33:50;18.67;;;10.65;;
58864;SDS011;45702;52.982;6.658;2023-02-28T11:38:42;16.38;;;10.40;;
58864;SDS011;45702;52.982;6.658;2023-02-28T11:46:28;17.95;;;10.32;;
58864;SDS011;45702;52.982;6.658;2023-02-28T11:51:23;16.00;;;9.13;;
58864;SDS011;45702;52.982;6.658;2023-02-28T11:54:11;16.30;;;9.70;;
58864;SDS011;45702;52.982;6.658;2023-02-28T11:56:44;18.90;;;10.10;;
58864;SDS011;45702;52.982;6.658;2023-02-28T12:10:15;13.52;;;8.38;;
58864;SDS011;45702;52.982;6.658;2023-02-28T12:17:51;13.30;;;7.90;;
58864;SDS011;45702;52.982;6.658;2023-02-28T12:28:11;11.70;;;8.00;;
58864;SDS011;45702;52.982;6.658;2023-02-28T12:30:39;10.93;;;7.68;;
58864;SDS011;45702;52.982;6.658;2023-02-28T12:33:16;12.32;;;8.07;;
58864;SDS011;45702;52.982;6.658;2023-02-28T12:35:51;15.07;;;8.80;;
58864;SDS011;45702;52.982;6.658;2023-02-28T12:40:49;11.52;;;8.20;;
58864;SDS011;45702;52.982;6.658;2023-02-28T12:43:17;14.35;;;9.15;;
58864;SDS011;45702;52.982;6.658;2023-02-28T12:45:55;12.05;;;8.77;;
58864;SDS011;45702;52.982;6.658;2023-02-28T12:48:27;11.88;;;8.77;;
58864;SDS011;45702;52.982;6.658;2023-02-28T12:50:55;17.00;;;12.25;;
58864;SDS011;45702;52.982;6.658;2023-02-28T12:53:23;13.88;;;9.50;;
58864;SDS011;45702;52.982;6.658;2023-02-28T13:11:28;12.15;;;8.35;;
58864;SDS011;45702;52.982;6.658;2023-02-28T13:13:59;12.93;;;8.48;;
58864;SDS011;45702;52.982;6.658;2023-02-28T13:16:26;11.73;;;8.40;;
58864;SDS011;45702;52.982;6.658;2023-02-28T13:19:08;13.05;;;8.30;;
58864;SDS011;45702;52.982;6.658;2023-02-28T13:21:41;12.88;;;8.57;;
58864;SDS011;45702;52.982;6.658;2023-02-28T13:24:07;13.77;;;8.57;;
58864;SDS011;45702;52.982;6.658;2023-02-28T13:34:20;11.98;;;7.97;;
58864;SDS011;45702;52.982;6.658;2023-02-28T13:36:46;14.48;;;8.45;;
58864;SDS011;45702;52.982;6.658;2023-02-28T13:41:57;16.23;;;9.50;;
58864;SDS011;45702;52.982;6.658;2023-02-28T13:47:38;15.50;;;9.02;;
58864;SDS011;45702;52.982;6.658;2023-02-28T14:03:27;11.90;;;7.65;;
58864;SDS011;45702;52.982;6.658;2023-02-28T14:11:34;12.82;;;8.48;;
58864;SDS011;45702;52.982;6.658;2023-02-28T14:14:01;12.23;;;8.30;;
58864;SDS011;45702;52.982;6.658;2023-02-28T14:16:38;13.10;;;8.77;;
58864;SDS011;45702;52.982;6.658;2023-02-28T14:19:10;14.18;;;8.40;;
58864;SDS011;45702;52.982;6.658;2023-02-28T14:21:38;13.85;;;8.70;;
58864;SDS011;45702;52.982;6.658;2023-02-28T14:27:00;15.18;;;9.23;;
58864;SDS011;45702;52.982;6.658;2023-02-28T14:29:35;13.90;;;8.65;;
58864;SDS011;45702;52.982;6.658;2023-02-28T14:32:17;14.15;;;9.35;;
58864;SDS011;45702;52.982;6.658;2023-02-28T14:37:29;18.65;;;9.93;;
58864;SDS011;45702;52.982;6.658;2023-02-28T14:39:58;16.88;;;10.35;;
58864;SDS011;45702;52.982;6.658;2023-02-28T14:44:58;19.02;;;10.43;;
58864;SDS011;45702;52.982;6.658;2023-02-28T14:47:26;17.27;;;10.95;;
58864;SDS011;45702;52.982;6.658;2023-02-28T14:49:53;17.60;;;9.57;;
58864;SDS011;45702;52.982;6.658;2023-02-28T14:52:24;16.95;;;10.00;;
58864;SDS011;45702;52.982;6.658;2023-02-28T14:54:53;13.57;;;9.07;;
58864;SDS011;45702;52.982;6.658;2023-02-28T14:57:23;12.73;;;8.85;;
58864;SDS011;45702;52.982;6.658;2023-02-28T15:02:30;15.45;;;9.77;;
58864;SDS011;45702;52.982;6.658;2023-02-28T15:04:58;17.75;;;10.07;;
58864;SDS011;45702;52.982;6.658;2023-02-28T15:07:25;16.30;;;9.60;;
58864;SDS011;45702;52.982;6.658;2023-02-28T15:12:33;19.25;;;9.32;;
58864;SDS011;45702;52.982;6.658;2023-02-28T15:15:00;15.18;;;9.25;;
58864;SDS011;45702;52.982;6.658;2023-02-28T15:17:26;16.58;;;10.10;;
58864;SDS011;45702;52.982;6.658;2023-02-28T15:19:52;15.73;;;9.82;;
58864;SDS011;45702;52.982;6.658;2023-02-28T15:22:20;17.50;;;9.90;;
58864;SDS011;45702;52.982;6.658;2023-02-28T15:24:51;16.20;;;9.50;;
58864;SDS011;45702;52.982;6.658;2023-02-28T15:27:22;19.35;;;10.20;;
58864;SDS011;45702;52.982;6.658;2023-02-28T15:29:50;21.70;;;9.38;;
58864;SDS011;45702;52.982;6.658;2023-02-28T15:32:35;16.40;;;9.90;;
58864;SDS011;45702;52.982;6.658;2023-02-28T15:37:50;13.80;;;9.32;;
58864;SDS011;45702;52.982;6.658;2023-02-28T15:45:26;19.27;;;10.40;;
58864;SDS011;45702;52.982;6.658;2023-02-28T15:47:53;22.77;;;13.77;;
58864;SDS011;45702;52.982;6.658;2023-02-28T15:50:19;20.92;;;12.68;;
58864;SDS011;45702;52.982;6.658;2023-02-28T15:52:45;19.73;;;11.60;;
58864;SDS011;45702;52.982;6.658;2023-02-28T15:55:21;18.63;;;11.30;;
58864;SDS011;45702;52.982;6.658;2023-02-28T15:57:50;17.88;;;10.85;;
58864;SDS011;45702;52.982;6.658;2023-02-28T16:00:20;18.52;;;11.95;;
58864;SDS011;45702;52.982;6.658;2023-02-28T16:02:46;20.05;;;12.00;;
58864;SDS011;45702;52.982;6.658;2023-02-28T16:05:23;19.95;;;11.70;;
58864;SDS011;45702;52.982;6.658;2023-02-28T16:07:53;20.00;;;11.82;;
58864;SDS011;45702;52.982;6.658;2023-02-28T16:10:20;19.17;;;11.75;;
58864;SDS011;45702;52.982;6.658;2023-02-28T16:12:46;23.48;;;13.05;;
58864;SDS011;45702;52.982;6.658;2023-02-28T16:17:41;21.25;;;12.45;;
58864;SDS011;45702;52.982;6.658;2023-02-28T16:20:18;19.13;;;12.10;;
58864;SDS011;45702;52.982;6.658;2023-02-28T16:22:44;21.15;;;12.73;;
58864;SDS011;45702;52.982;6.658;2023-02-28T16:25:14;21.23;;;13.40;;
58864;SDS011;45702;52.982;6.658;2023-02-28T16:27:41;20.58;;;12.90;;
58864;SDS011;45702;52.982;6.658;2023-02-28T16:30:09;21.15;;;12.98;;
58864;SDS011;45702;52.982;6.658;2023-02-28T16:32:40;20.15;;;12.55;;
58864;SDS011;45702;52.982;6.658;2023-02-28T16:35:09;20.15;;;13.00;;
58864;SDS011;45702;52.982;6.658;2023-02-28T16:37:35;20.95;;;13.38;;
58864;SDS011;45702;52.982;6.658;2023-02-28T16:40:02;20.50;;;14.10;;
58864;SDS011;45702;52.982;6.658;2023-02-28T16:42:28;21.65;;;15.20;;
58864;SDS011;45702;52.982;6.658;2023-02-28T16:44:55;25.13;;;15.30;;
58864;SDS011;45702;52.982;6.658;2023-02-28T16:47:22;24.90;;;14.85;;
58864;SDS011;45702;52.982;6.658;2023-02-28T16:49:49;22.80;;;15.25;;
58864;SDS011;45702;52.982;6.658;2023-02-28T16:52:15;25.08;;;15.63;;
58864;SDS011;45702;52.982;6.658;2023-02-28T16:54:41;25.35;;;16.50;;
58864;SDS011;45702;52.982;6.658;2023-02-28T16:57:16;23.05;;;16.02;;
58864;SDS011;45702;52.982;6.658;2023-02-28T16:59:43;27.83;;;16.52;;
58864;SDS011;45702;52.982;6.658;2023-02-28T17:02:12;25.17;;;16.40;;
58864;SDS011;45702;52.982;6.658;2023-02-28T17:04:39;31.40;;;16.38;;
58864;SDS011;45702;52.982;6.658;2023-02-28T17:07:09;33.22;;;19.40;;
58864;SDS011;45702;52.982;6.658;2023-02-28T17:09:37;39.15;;;24.35;;